Time;durP1;ratioP1;P1;durP2;ratioP2;P2;SDS_P1;SDS_P2;PMS_P1;PMS_P2;Temp;Humidity;BMP_temperature;BMP_pressure;BME280_temperature;BME280_humidity;BME280_pressure;Samples;Min_cycle;Max_cycle;Signal;HPM_P1;HPM_P2
2022/05/20 00:00:17;;;;;;;20.35;12.48;;;;;;;;;;5063971;28;20053;-73
2022/05/20 00:02:43;;;;;;;20.80;12.10;;;;;;;;;;5063103;28;20053;-73
2022/05/20 00:05:10;;;;;;;19.73;12.25;;;;;;;;;;5065469;28;20056;-73
2022/05/20 00:07:36;;;;;;;17.92;12.00;;;;;;;;;;5065504;28;20518;-73
2022/05/20 00:10:02;;;;;;;15.93;11.60;;;;;;;;;;5065286;28;20552;-73
2022/05/20 00:12:29;;;;;;;21.40;12.40;;;;;;;;;;5063910;28;20057;-72
2022/05/20 00:14:55;;;;;;;21.50;11.82;;;;;;;;;;5064391;28;20510;-72
2022/05/20 00:17:21;;;;;;;18.40;11.45;;;;;;;;;;5063345;28;20061;-73
2022/05/20 00:19:48;;;;;;;20.25;12.18;;;;;;;;;;5065695;28;20053;-73
2022/05/20 00:22:14;;;;;;;19.92;12.13;;;;;;;;;;5063754;28;20084;-73
2022/05/20 00:25:45;;;;;;;16.25;11.30;;;;;;;;;;5063761;28;20052;-73
2022/05/20 00:27:26;;;;;;;18.38;11.23;;;;;;;;;;5063751;28;20073;-73
2022/05/20 00:29:53;;;;;;;16.65;9.95;;;;;;;;;;5063898;28;20064;-74
2022/05/20 00:32:19;;;;;;;11.18;8.38;;;;;;;;;;5061730;28;20053;-73
2022/05/20 00:34:46;;;;;;;11.77;6.97;;;;;;;;;;5064988;28;20045;-73
2022/05/20 00:37:12;;;;;;;10.02;6.95;;;;;;;;;;5065596;28;20053;-74
2022/05/20 00:39:38;;;;;;;10.65;6.93;;;;;;;;;;5064768;28;20515;-74
2022/05/20 00:42:16;;;;;;;12.55;8.27;;;;;;;;;;5063937;28;20049;-74
2022/05/20 00:44:42;;;;;;;15.35;7.85;;;;;;;;;;5064594;28;20604;-74
2022/05/20 00:47:09;;;;;;;11.10;7.38;;;;;;;;;;5064608;28;20056;-73
2022/05/20 00:49:36;;;;;;;14.77;8.18;;;;;;;;;;5063009;28;20107;-73
2022/05/20 00:52:04;;;;;;;11.05;7.45;;;;;;;;;;5063085;28;20048;-73
2022/05/20 00:54:33;;;;;;;13.38;8.18;;;;;;;;;;5064591;28;20864;-73
2022/05/20 00:57:02;;;;;;;14.85;8.25;;;;;;;;;;5064700;28;20059;-74
2022/05/20 00:59:30;;;;;;;11.57;7.72;;;;;;;;;;5057396;28;20056;-73
2022/05/20 01:02:00;;;;;;;13.55;8.63;;;;;;;;;;5063792;28;20053;-73
2022/05/20 01:04:28;;;;;;;10.88;7.80;;;;;;;;;;5063183;28;20060;-73
2022/05/20 01:06:54;;;;;;;16.08;9.15;;;;;;;;;;5059231;28;20585;-73
2022/05/20 01:09:21;;;;;;;14.88;8.20;;;;;;;;;;5057435;28;20083;-73
2022/05/20 01:11:47;;;;;;;10.40;7.60;;;;;;;;;;5064601;28;20578;-73
2022/05/20 01:14:19;;;;;;;12.45;7.78;;;;;;;;;;5059939;28;20053;-73
2022/05/20 01:16:46;;;;;;;12.20;8.48;;;;;;;;;;5064335;28;20053;-73
2022/05/20 01:19:16;;;;;;;11.32;8.23;;;;;;;;;;5062320;28;20530;-73
2022/05/20 01:21:42;;;;;;;15.65;8.43;;;;;;;;;;5063445;28;20052;-73
2022/05/20 01:24:10;;;;;;;12.95;8.68;;;;;;;;;;5052869;28;20135;-73
2022/05/20 01:26:37;;;;;;;11.32;8.05;;;;;;;;;;5057744;28;20068;-74
2022/05/20 01:29:03;;;;;;;11.70;7.90;;;;;;;;;;5063882;28;20143;-73
2022/05/20 01:31:29;;;;;;;11.50;7.05;;;;;;;;;;5063718;28;20079;-73
2022/05/20 01:33:56;;;;;;;10.20;6.90;;;;;;;;;;5060906;28;20136;-73
2022/05/20 01:36:23;;;;;;;11.20;6.57;;;;;;;;;;5062879;28;20057;-73
2022/05/20 01:38:52;;;;;;;11.40;6.70;;;;;;;;;;5064454;28;20452;-72
2022/05/20 01:41:38;;;;;;;9.32;6.43;;;;;;;;;;5055017;28;20053;-73
2022/05/20 01:44:31;;;;;;;10.80;6.88;;;;;;;;;;5060692;28;20063;-72
2022/05/20 01:47:01;;;;;;;11.82;7.35;;;;;;;;;;5060841;28;20045;-72
2022/05/20 01:49:32;;;;;;;9.70;7.20;;;;;;;;;;5064019;28;20179;-72
2022/05/20 01:52:17;;;;;;;11.00;7.70;;;;;;;;;;5063425;28;20186;-73
2022/05/20 01:55:22;;;;;;;9.88;7.07;;;;;;;;;;5062945;28;21023;-76
2022/05/20 01:58:01;;;;;;;9.73;7.38;;;;;;;;;;4977089;28;20170;-73
2022/05/20 02:00:29;;;;;;;12.45;9.02;;;;;;;;;;4981060;28;20086;-73
2022/05/20 02:03:25;;;;;;;14.57;9.10;;;;;;;;;;5021710;28;20045;-73
2022/05/20 02:05:56;;;;;;;14.15;9.07;;;;;;;;;;5049849;28;20075;-73
2022/05/20 02:08:26;;;;;;;11.15;8.18;;;;;;;;;;5063543;28;20132;-73
2022/05/20 02:10:58;;;;;;;12.57;7.68;;;;;;;;;;5062810;28;20053;-73
2022/05/20 02:13:27;;;;;;;11.88;8.30;;;;;;;;;;5058151;28;20057;-73
2022/05/20 02:15:57;;;;;;;11.55;7.70;;;;;;;;;;5051218;28;20547;-73
2022/05/20 02:18:43;;;;;;;11.25;7.97;;;;;;;;;;5063029;28;20064;-73
2022/05/20 02:21:12;;;;;;;10.20;7.50;;;;;;;;;;5062314;28;20056;-73
2022/05/20 02:23:41;;;;;;;11.07;7.35;;;;;;;;;;5061231;28;20049;-74
2022/05/20 02:26:10;;;;;;;11.73;7.72;;;;;;;;;;5064001;28;20895;-73
2022/05/20 02:28:39;;;;;;;10.95;7.28;;;;;;;;;;5062346;28;20169;-73
2022/05/20 02:31:08;;;;;;;11.00;7.53;;;;;;;;;;5063540;28;20468;-73
2022/05/20 02:33:35;;;;;;;10.55;7.00;;;;;;;;;;5057971;28;20528;-73
2022/05/20 02:36:06;;;;;;;12.93;7.00;;;;;;;;;;5064538;28;20059;-73
2022/05/20 02:38:32;;;;;;;11.10;5.93;;;;;;;;;;5043399;28;20057;-73
2022/05/20 02:40:58;;;;;;;7.40;5.45;;;;;;;;;;5048192;28;20452;-73
2022/05/20 02:43:25;;;;;;;9.15;4.90;;;;;;;;;;5061443;28;20053;-74
2022/05/20 02:45:52;;;;;;;9.48;5.13;;;;;;;;;;5062352;28;20461;-73
2022/05/20 02:48:19;;;;;;;6.38;5.00;;;;;;;;;;5061932;28;20131;-73
2022/05/20 02:50:45;;;;;;;8.43;5.53;;;;;;;;;;5062493;28;20063;-73
2022/05/20 02:53:12;;;;;;;8.43;5.55;;;;;;;;;;5060859;28;20052;-73
2022/05/20 02:55:38;;;;;;;7.57;5.40;;;;;;;;;;5063546;28;20132;-73
2022/05/20 02:58:05;;;;;;;6.93;5.30;;;;;;;;;;5062930;28;20059;-73
2022/05/20 03:06:01;;;;;;;7.57;5.82;;;;;;;;;;5061395;28;20132;-73
2022/05/20 03:08:27;;;;;;;7.90;6.07;;;;;;;;;;5063129;28;20107;-73
2022/05/20 03:10:54;;;;;;;9.70;6.68;;;;;;;;;;5063282;28;20563;-73
2022/05/20 03:13:20;;;;;;;8.73;6.38;;;;;;;;;;5059722;28;20143;-73
2022/05/20 03:15:47;;;;;;;10.18;6.00;;;;;;;;;;5061388;28;20053;-73
2022/05/20 03:18:13;;;;;;;9.82;6.10;;;;;;;;;;5062524;28;20059;-73
2022/05/20 03:20:41;;;;;;;10.25;6.15;;;;;;;;;;5061084;28;20057;-73
2022/05/20 03:23:09;;;;;;;12.48;6.07;;;;;;;;;;5058781;28;20049;-73
2022/05/20 03:25:37;;;;;;;8.57;6.13;;;;;;;;;;5062721;28;20128;-73
2022/05/20 03:28:09;;;;;;;9.00;6.43;;;;;;;;;;5061802;28;20049;-73
2022/05/20 03:30:35;;;;;;;11.23;6.65;;;;;;;;;;5063106;28;20067;-73
2022/05/20 03:33:02;;;;;;;10.65;7.03;;;;;;;;;;5060813;28;20139;-73
2022/05/20 03:35:28;;;;;;;14.25;7.85;;;;;;;;;;5080774;28;20128;-73
2022/05/20 03:37:54;;;;;;;13.55;8.75;;;;;;;;;;5068155;28;20057;-73
2022/05/20 03:40:21;;;;;;;14.55;8.68;;;;;;;;;;5059179;28;20053;-73
2022/05/20 03:42:47;;;;;;;15.02;8.63;;;;;;;;;;5061549;28;20049;-73
2022/05/20 03:45:14;;;;;;;17.73;9.35;;;;;;;;;;5062258;28;20139;-73
2022/05/20 03:47:40;;;;;;;37.13;9.70;;;;;;;;;;5062354;28;20057;-73
2022/05/20 03:50:08;;;;;;;22.38;9.07;;;;;;;;;;5062692;28;20033;-73
2022/05/20 03:52:34;;;;;;;25.60;8.80;;;;;;;;;;5058897;28;20059;-73
2022/05/20 03:55:01;;;;;;;12.73;7.43;;;;;;;;;;5061296;28;20057;-73
2022/05/20 03:57:27;;;;;;;17.90;8.23;;;;;;;;;;5051608;28;20060;-73
2022/05/20 03:59:54;;;;;;;20.45;8.73;;;;;;;;;;5055009;28;20414;-73
2022/05/20 04:02:20;;;;;;;17.48;7.20;;;;;;;;;;5060720;28;20057;-72
2022/05/20 04:04:49;;;;;;;12.05;6.20;;;;;;;;;;5060819;28;20480;-73
2022/05/20 04:07:20;;;;;;;14.02;6.88;;;;;;;;;;5062966;28;20053;-74
2022/05/20 04:09:48;;;;;;;14.02;7.82;;;;;;;;;;5061238;28;20609;-73
2022/05/20 04:12:31;;;;;;;18.50;9.05;;;;;;;;;;5059608;28;20057;-74
2022/05/20 04:14:57;;;;;;;17.75;8.13;;;;;;;;;;5062467;28;20059;-73
2022/05/20 04:17:24;;;;;;;17.92;10.43;;;;;;;;;;5062806;28;20169;-73
2022/05/20 04:19:51;;;;;;;22.00;10.43;;;;;;;;;;5066004;28;20057;-73
2022/05/20 04:22:19;;;;;;;23.45;11.75;;;;;;;;;;5062973;28;20140;-74
2022/05/20 04:24:46;;;;;;;17.30;11.45;;;;;;;;;;5070902;28;20242;-73
2022/05/20 04:27:12;;;;;;;19.27;11.93;;;;;;;;;;5064968;28;20059;-74
2022/05/20 04:29:38;;;;;;;17.13;10.95;;;;;;;;;;5066496;28;20055;-74
2022/05/20 04:32:05;;;;;;;16.27;10.30;;;;;;;;;;5063373;28;20055;-74
2022/05/20 04:34:31;;;;;;;17.85;10.50;;;;;;;;;;5057157;28;20077;-74
2022/05/20 04:36:58;;;;;;;15.60;9.82;;;;;;;;;;5065951;28;20071;-74
2022/05/20 04:39:24;;;;;;;15.45;9.82;;;;;;;;;;5064234;28;20132;-74
2022/05/20 04:47:23;;;;;;;15.23;8.90;;;;;;;;;;5060264;28;20053;-73
2022/05/20 04:49:49;;;;;;;14.45;8.75;;;;;;;;;;5060917;28;20065;-73
2022/05/20 04:52:16;;;;;;;17.58;9.27;;;;;;;;;;5066164;28;20527;-73
2022/05/20 04:54:51;;;;;;;18.52;10.38;;;;;;;;;;5065186;28;20543;-73
2022/05/20 04:57:38;;;;;;;19.65;10.40;;;;;;;;;;5061502;28;20045;-73
2022/05/20 05:00:05;;;;;;;18.73;10.38;;;;;;;;;;5063298;28;20054;-75
2022/05/20 05:02:32;;;;;;;17.05;10.70;;;;;;;;;;5045753;28;20062;-74
2022/05/20 05:04:59;;;;;;;17.70;11.27;;;;;;;;;;5059533;28;20059;-74
2022/05/20 05:07:25;;;;;;;22.05;11.60;;;;;;;;;;5063182;28;20053;-74
2022/05/20 05:09:53;;;;;;;20.95;12.35;;;;;;;;;;5061013;28;20433;-75
2022/05/20 05:12:19;;;;;;;18.25;11.63;;;;;;;;;;5063659;28;20111;-74
2022/05/20 05:14:48;;;;;;;19.85;12.07;;;;;;;;;;5063604;28;20053;-74
2022/05/20 05:17:16;;;;;;;19.50;12.38;;;;;;;;;;5062282;28;20049;-74
2022/05/20 05:19:44;;;;;;;21.63;11.80;;;;;;;;;;5062212;28;20052;-74
2022/05/20 05:22:11;;;;;;;19.08;11.88;;;;;;;;;;5062970;28;20579;-74
2022/05/20 05:24:38;;;;;;;21.95;12.45;;;;;;;;;;5063304;28;20132;-75
2022/05/20 05:27:07;;;;;;;29.02;14.88;;;;;;;;;;5063149;28;20067;-74
2022/05/20 05:29:35;;;;;;;25.45;12.85;;;;;;;;;;5059948;28;20045;-75
2022/05/20 05:32:01;;;;;;;23.23;13.15;;;;;;;;;;5064437;28;20053;-74
2022/05/20 05:34:28;;;;;;;29.15;15.38;;;;;;;;;;5060509;28;20053;-74
2022/05/20 05:36:54;;;;;;;25.48;14.73;;;;;;;;;;5062311;28;20128;-74
2022/05/20 05:39:21;;;;;;;26.35;14.25;;;;;;;;;;5052642;28;20056;-74
2022/05/20 05:41:48;;;;;;;19.90;13.02;;;;;;;;;;5044036;28;20057;-75
2022/05/20 05:44:14;;;;;;;28.23;16.20;;;;;;;;;;5062516;28;20168;-74
2022/05/20 05:46:40;;;;;;;22.05;13.55;;;;;;;;;;5063276;28;20063;-75
2022/05/20 05:49:07;;;;;;;22.90;13.40;;;;;;;;;;5061509;28;20053;-75
2022/05/20 05:51:34;;;;;;;25.98;13.23;;;;;;;;;;5063853;28;20451;-74
2022/05/20 05:54:00;;;;;;;20.50;13.80;;;;;;;;;;5062319;28;20049;-75
2022/05/20 05:56:26;;;;;;;22.25;14.48;;;;;;;;;;5053355;28;20183;-74
2022/05/20 05:58:53;;;;;;;25.52;15.15;;;;;;;;;;5052613;28;20060;-75
2022/05/20 06:01:19;;;;;;;20.73;14.27;;;;;;;;;;5054391;28;20052;-74
2022/05/20 06:03:45;;;;;;;21.33;15.00;;;;;;;;;;5057995;28;20041;-75
2022/05/20 06:06:12;;;;;;;24.55;15.63;;;;;;;;;;5060835;28;20406;-75
2022/05/20 06:08:38;;;;;;;24.20;15.73;;;;;;;;;;5060716;28;20133;-73
2022/05/20 06:11:05;;;;;;;27.08;15.68;;;;;;;;;;5058576;28;22387;-74
2022/05/20 06:13:32;;;;;;;25.35;17.10;;;;;;;;;;5060599;28;20059;-74
2022/05/20 06:15:58;;;;;;;22.95;15.73;;;;;;;;;;5061628;28;20056;-74
2022/05/20 06:18:25;;;;;;;28.70;17.40;;;;;;;;;;5064980;28;20055;-74
2022/05/20 06:20:52;;;;;;;28.00;17.27;;;;;;;;;;5063858;28;20083;-74
2022/05/20 06:23:18;;;;;;;26.92;17.27;;;;;;;;;;5065398;28;20057;-74
2022/05/20 06:25:45;;;;;;;22.83;17.02;;;;;;;;;;5064821;28;20059;-74
2022/05/20 06:28:31;;;;;;;28.45;17.13;;;;;;;;;;5061003;28;20061;-74
2022/05/20 06:31:03;;;;;;;21.73;15.40;;;;;;;;;;5059311;28;20060;-74
2022/05/20 06:33:30;;;;;;;23.08;16.15;;;;;;;;;;5061746;28;20053;-73
2022/05/20 06:41:26;;;;;;;25.23;13.63;;;;;;;;;;5043743;28;20099;-75
2022/05/20 06:43:52;;;;;;;20.08;13.40;;;;;;;;;;5051665;28;20578;-75
2022/05/20 06:46:18;;;;;;;17.65;11.35;;;;;;;;;;5062582;28;20060;-75
2022/05/20 06:48:57;;;;;;;16.15;12.02;;;;;;;;;;5064284;28;20088;-75
2022/05/20 06:51:30;;;;;;;17.30;11.43;;;;;;;;;;5064314;28;20056;-76
2022/05/20 06:53:57;;;;;;;15.55;11.32;;;;;;;;;;5062220;28;20521;-76
2022/05/20 06:56:24;;;;;;;16.20;11.35;;;;;;;;;;5063545;28;20136;-75
2022/05/20 06:58:51;;;;;;;19.17;11.80;;;;;;;;;;5061644;28;20557;-75
2022/05/20 07:01:17;;;;;;;15.63;12.15;;;;;;;;;;5063158;28;20143;-75
2022/05/20 07:03:44;;;;;;;22.75;12.80;;;;;;;;;;5060813;28;20134;-76
2022/05/20 07:06:12;;;;;;;17.17;12.45;;;;;;;;;;5063643;28;20053;-75
2022/05/20 07:08:39;;;;;;;17.38;12.15;;;;;;;;;;5061265;28;20095;-76
2022/05/20 07:11:06;;;;;;;16.02;11.40;;;;;;;;;;5058334;28;20044;-76
2022/05/20 07:13:38;;;;;;;17.38;11.60;;;;;;;;;;5063682;28;20057;-76
2022/05/20 07:16:04;;;;;;;23.52;10.95;;;;;;;;;;5062840;28;20049;-75
2022/05/20 07:18:32;;;;;;;18.27;11.07;;;;;;;;;;5063790;28;20127;-75
2022/05/20 07:20:58;;;;;;;15.57;10.75;;;;;;;;;;5058485;28;20059;-76
2022/05/20 07:23:28;;;;;;;17.30;10.52;;;;;;;;;;5062597;28;20563;-75
2022/05/20 07:25:55;;;;;;;19.05;10.98;;;;;;;;;;5065838;28;20621;-76
2022/05/20 07:28:21;;;;;;;15.50;10.38;;;;;;;;;;5058656;28;20049;-76
2022/05/20 07:30:48;;;;;;;13.98;9.27;;;;;;;;;;5058904;28;20463;-76
2022/05/20 07:33:14;;;;;;;14.13;9.52;;;;;;;;;;5061274;28;20087;-76
2022/05/20 07:35:40;;;;;;;14.20;8.75;;;;;;;;;;5061108;28;20115;-76
2022/05/20 07:38:07;;;;;;;14.27;8.88;;;;;;;;;;5059716;28;20057;-76
2022/05/20 07:40:33;;;;;;;14.48;9.57;;;;;;;;;;5062371;28;20057;-75
2022/05/20 07:43:00;;;;;;;12.32;7.90;;;;;;;;;;5061114;28;20124;-75
2022/05/20 07:45:26;;;;;;;12.00;7.43;;;;;;;;;;5060610;28;20065;-75
2022/05/20 07:47:53;;;;;;;13.07;8.15;;;;;;;;;;5064535;28;20571;-75
2022/05/20 07:50:19;;;;;;;15.20;8.00;;;;;;;;;;5069474;28;20528;-75
2022/05/20 07:55:37;;;;;;;12.43;7.30;;;;;;;;;;5069584;28;20532;-76
2022/05/20 07:58:05;;;;;;;13.63;8.50;;;;;;;;;;5063623;28;20049;-75
2022/05/20 08:00:32;;;;;;;12.63;8.70;;;;;;;;;;5068620;28;20053;-76
2022/05/20 08:03:00;;;;;;;13.35;9.05;;;;;;;;;;5068351;28;20045;-75
2022/05/20 08:05:28;;;;;;;14.77;9.10;;;;;;;;;;5065244;28;20059;-75
2022/05/20 08:08:05;;;;;;;13.25;9.52;;;;;;;;;;5069233;28;20060;-76
2022/05/20 08:10:33;;;;;;;18.75;9.40;;;;;;;;;;5067158;28;20048;-76
2022/05/20 08:13:00;;;;;;;15.43;9.10;;;;;;;;;;5061913;28;20327;-76
2022/05/20 08:15:27;;;;;;;13.25;8.90;;;;;;;;;;5064910;28;20068;-76
2022/05/20 08:17:53;;;;;;;14.82;8.32;;;;;;;;;;5069341;28;20057;-76
2022/05/20 08:20:27;;;;;;;13.05;8.38;;;;;;;;;;5064595;28;20418;-76
2022/05/20 08:22:54;;;;;;;14.80;7.72;;;;;;;;;;5066649;28;20420;-76
2022/05/20 08:25:20;;;;;;;11.35;8.27;;;;;;;;;;5067244;28;20049;-76
2022/05/20 08:27:47;;;;;;;13.85;8.18;;;;;;;;;;5064426;28;20053;-76
2022/05/20 08:30:15;;;;;;;13.70;7.78;;;;;;;;;;5049254;28;20045;-76
2022/05/20 08:32:42;;;;;;;13.52;8.13;;;;;;;;;;5066534;28;20135;-77
2022/05/20 08:35:10;;;;;;;12.45;7.30;;;;;;;;;;5072289;28;20057;-76
2022/05/20 08:37:40;;;;;;;11.30;6.75;;;;;;;;;;5063753;28;20188;-76
2022/05/20 08:40:16;;;;;;;12.65;6.47;;;;;;;;;;5060907;28;20523;-75
2022/05/20 08:42:43;;;;;;;12.65;6.63;;;;;;;;;;5059921;28;20700;-75
2022/05/20 08:45:11;;;;;;;10.77;6.93;;;;;;;;;;5064403;28;20979;-75
2022/05/20 08:47:55;;;;;;;10.88;6.80;;;;;;;;;;5065524;28;20049;-75
2022/05/20 08:50:31;;;;;;;11.13;6.53;;;;;;;;;;5062319;28;20049;-75
2022/05/20 08:52:58;;;;;;;12.15;6.93;;;;;;;;;;5066178;28;20589;-75
2022/05/20 08:55:24;;;;;;;10.65;6.22;;;;;;;;;;5064996;28;20059;-75
2022/05/20 08:57:53;;;;;;;11.57;6.65;;;;;;;;;;5047502;28;20053;-75
2022/05/20 09:00:20;;;;;;;12.52;6.40;;;;;;;;;;5065834;28;20581;-75
2022/05/20 09:02:46;;;;;;;12.45;7.00;;;;;;;;;;5059434;28;20056;-75
2022/05/20 09:05:17;;;;;;;12.13;6.70;;;;;;;;;;5060685;28;20049;-75
2022/05/20 09:07:53;;;;;;;9.88;5.70;;;;;;;;;;5064642;28;20092;-76
2022/05/20 09:10:29;;;;;;;9.60;5.55;;;;;;;;;;5064546;28;20569;-76
2022/05/20 09:13:04;;;;;;;9.25;5.47;;;;;;;;;;5061668;28;20140;-75
2022/05/20 09:15:43;;;;;;;11.10;5.47;;;;;;;;;;5062705;28;20059;-75
2022/05/20 09:18:30;;;;;;;11.00;4.97;;;;;;;;;;5061616;28;20088;-78
2022/05/20 09:20:57;;;;;;;8.95;4.40;;;;;;;;;;5054586;28;21279;-74
2022/05/20 09:23:24;;;;;;;8.63;4.40;;;;;;;;;;5065669;28;20063;-74
2022/05/20 09:25:59;;;;;;;6.85;4.65;;;;;;;;;;5063987;28;20049;-75
2022/05/20 09:28:34;;;;;;;10.02;5.00;;;;;;;;;;5064476;28;20057;-74
2022/05/20 09:31:12;;;;;;;10.25;5.00;;;;;;;;;;5058255;28;20505;-75
2022/05/20 09:33:39;;;;;;;8.85;4.55;;;;;;;;;;5057588;28;20296;-75
2022/05/20 09:36:06;;;;;;;10.48;4.43;;;;;;;;;;5051925;28;20504;-75
2022/05/20 09:38:37;;;;;;;8.98;3.90;;;;;;;;;;5058978;28;20048;-75
2022/05/20 09:41:16;;;;;;;8.60;4.30;;;;;;;;;;5063796;28;20060;-75
2022/05/20 09:43:44;;;;;;;9.70;4.40;;;;;;;;;;5069011;28;20059;-75
2022/05/20 09:46:26;;;;;;;10.48;4.50;;;;;;;;;;5063548;28;20056;-75
2022/05/20 09:48:58;;;;;;;11.32;4.70;;;;;;;;;;5061809;28;20111;-75
2022/05/20 09:51:30;;;;;;;9.85;4.13;;;;;;;;;;5046123;28;20534;-75
2022/05/20 09:54:02;;;;;;;8.40;4.55;;;;;;;;;;5062060;28;20136;-75
2022/05/20 09:56:31;;;;;;;9.80;4.18;;;;;;;;;;5058225;28;20063;-75
2022/05/20 09:58:59;;;;;;;8.43;4.43;;;;;;;;;;5059924;28;20057;-75
2022/05/20 10:01:26;;;;;;;9.10;3.83;;;;;;;;;;5061089;28;20093;-75
2022/05/20 10:03:57;;;;;;;8.38;3.50;;;;;;;;;;5063080;28;20072;-75
2022/05/20 10:06:26;;;;;;;7.40;3.70;;;;;;;;;;5061613;28;20511;-75
2022/05/20 10:09:05;;;;;;;10.43;3.60;;;;;;;;;;5058847;28;20059;-75
2022/05/20 10:11:32;;;;;;;8.25;3.50;;;;;;;;;;5057794;28;20826;-75
2022/05/20 10:14:00;;;;;;;8.35;3.53;;;;;;;;;;5062597;28;20132;-74
2022/05/20 10:16:26;;;;;;;6.72;3.08;;;;;;;;;;5063132;28;20057;-74
2022/05/20 10:19:05;;;;;;;14.00;3.28;;;;;;;;;;5062701;28;20049;-74
2022/05/20 10:21:44;;;;;;;8.30;3.60;;;;;;;;;;5064627;28;20057;-74
2022/05/20 10:24:31;;;;;;;9.07;3.47;;;;;;;;;;5070231;28;20063;-73
2022/05/20 10:27:02;;;;;;;10.57;3.63;;;;;;;;;;5054924;28;20064;-74
2022/05/20 10:32:34;;;;;;;6.18;3.45;;;;;;;;;;5078243;28;20053;-74
2022/05/20 10:35:07;;;;;;;9.25;3.60;;;;;;;;;;5069113;28;20057;-74
2022/05/20 10:37:53;;;;;;;7.25;3.45;;;;;;;;;;5044176;28;20049;-75
2022/05/20 10:40:47;;;;;;;8.25;3.30;;;;;;;;;;5063425;28;20489;-75
2022/05/20 10:48:34;;;;;;;9.85;3.90;;;;;;;;;;5063802;28;20417;-74
2022/05/20 10:49:29;;;;;;;7.65;3.38;;;;;;;;;;5054511;28;20124;-74
2022/05/20 10:52:09;;;;;;;8.38;3.60;;;;;;;;;;5062851;28;20059;-74
2022/05/20 10:55:05;;;;;;;8.32;4.30;;;;;;;;;;5064230;28;20066;-75
2022/05/20 10:57:31;;;;;;;9.95;4.70;;;;;;;;;;5050028;28;20063;-75
2022/05/20 11:00:06;;;;;;;10.63;4.32;;;;;;;;;;5063109;28;20083;-75
2022/05/20 11:02:35;;;;;;;7.90;4.03;;;;;;;;;;5062755;28;20048;-75
2022/05/20 11:05:11;;;;;;;12.40;4.50;;;;;;;;;;5063225;28;20056;-75
2022/05/20 11:07:43;;;;;;;8.60;4.28;;;;;;;;;;5068792;28;20604;-75
2022/05/20 11:10:12;;;;;;;8.90;4.88;;;;;;;;;;5063279;28;20494;-75
2022/05/20 11:12:45;;;;;;;7.43;4.70;;;;;;;;;;5063430;28;20048;-75
2022/05/20 11:15:30;;;;;;;10.23;5.15;;;;;;;;;;5062766;28;20139;-75
2022/05/20 11:17:59;;;;;;;9.15;4.47;;;;;;;;;;5051987;28;20081;-75
2022/05/20 11:20:28;;;;;;;9.43;4.70;;;;;;;;;;5048347;28;20049;-75
2022/05/20 11:23:10;;;;;;;10.07;4.55;;;;;;;;;;5053212;28;20138;-76
2022/05/20 11:25:55;;;;;;;6.82;3.75;;;;;;;;;;5059007;28;20604;-75
2022/05/20 11:28:36;;;;;;;7.20;3.33;;;;;;;;;;5064872;28;20048;-75
2022/05/20 11:31:15;;;;;;;6.60;3.78;;;;;;;;;;5065831;28;20132;-75
2022/05/20 11:33:41;;;;;;;9.90;4.30;;;;;;;;;;5082013;28;20579;-76
2022/05/20 11:36:34;;;;;;;11.80;4.10;;;;;;;;;;5066859;28;20072;-75
2022/05/20 11:39:10;;;;;;;9.57;3.33;;;;;;;;;;5027839;28;20059;-75
2022/05/20 11:41:55;;;;;;;7.90;3.60;;;;;;;;;;5066660;28;20057;-75
2022/05/20 11:44:37;;;;;;;9.82;4.03;;;;;;;;;;5065532;28;20057;-75
2022/05/20 11:47:15;;;;;;;8.88;3.92;;;;;;;;;;5066291;28;20072;-75
2022/05/20 11:50:05;;;;;;;7.97;4.55;;;;;;;;;;5066034;28;20137;-75
2022/05/20 11:52:31;;;;;;;11.07;4.63;;;;;;;;;;5062519;28;20055;-75
2022/05/20 11:54:57;;;;;;;9.95;4.72;;;;;;;;;;5046199;28;20057;-75
2022/05/20 11:57:28;;;;;;;8.55;4.70;;;;;;;;;;5066467;28;21110;-75
2022/05/20 11:59:55;;;;;;;8.07;4.55;;;;;;;;;;5066385;28;20049;-75
2022/05/20 12:02:25;;;;;;;11.05;5.13;;;;;;;;;;5066388;28;20049;-75
2022/05/20 12:04:51;;;;;;;9.63;4.95;;;;;;;;;;5066127;28;20049;-75
2022/05/20 12:07:19;;;;;;;9.13;5.07;;;;;;;;;;5066132;28;20057;-75
2022/05/20 12:09:47;;;;;;;11.02;5.57;;;;;;;;;;5061122;28;20049;-75
2022/05/20 12:12:27;;;;;;;10.50;5.18;;;;;;;;;;5064817;28;20049;-75
2022/05/20 12:14:53;;;;;;;8.45;5.40;;;;;;;;;;5063954;28;20063;-77
2022/05/20 12:17:32;;;;;;;11.73;6.00;;;;;;;;;;5060259;28;20063;-75
2022/05/20 12:25:44;;;;;;;15.63;6.15;;;;;;;;;;5064822;28;20392;-75
2022/05/20 12:28:22;;;;;;;13.10;6.47;;;;;;;;;;5069096;28;20065;-75
2022/05/20 12:31:08;;;;;;;12.32;6.28;;;;;;;;;;5064951;28;20051;-76
2022/05/20 12:33:49;;;;;;;11.38;6.97;;;;;;;;;;5054010;28;20536;-75
2022/05/20 12:36:36;;;;;;;19.33;7.78;;;;;;;;;;5083176;28;20063;-73
2022/05/20 12:39:11;;;;;;;19.38;8.80;;;;;;;;;;5065414;28;20056;-72
2022/05/20 12:41:37;;;;;;;;;;;;;;;;;;5065980;28;20122;-73
2022/05/20 12:44:16;;;;;;;27.38;12.05;;;;;;;;;;5064559;28;42067;-75
2022/05/20 12:46:48;;;;;;;16.73;9.73;;;;;;;;;;5065091;28;20123;-73
2022/05/20 12:49:15;;;;;;;19.20;10.63;;;;;;;;;;5062543;28;20425;-74
2022/05/20 12:51:47;;;;;;;22.58;10.63;;;;;;;;;;5050188;28;20053;-73
2022/05/20 12:54:14;;;;;;;20.98;11.65;;;;;;;;;;5060849;28;20093;-74
2022/05/20 12:56:40;;;;;;;15.43;10.55;;;;;;;;;;5062266;28;20059;-73
2022/05/20 12:59:18;;;;;;;27.88;12.93;;;;;;;;;;5064405;28;20049;-74
2022/05/20 13:01:52;;;;;;;25.25;13.15;;;;;;;;;;5054852;28;20135;-75
2022/05/20 13:04:19;;;;;;;28.58;13.38;;;;;;;;;;5053991;28;20057;-74
2022/05/20 13:06:47;;;;;;;19.65;12.07;;;;;;;;;;5068669;28;20052;-75
2022/05/20 13:09:20;;;;;;;20.55;12.40;;;;;;;;;;5063653;28;20211;-74
2022/05/20 13:11:50;;;;;;;21.25;12.95;;;;;;;;;;5063202;28;20603;-74
2022/05/20 13:14:28;;;;;;;20.02;12.52;;;;;;;;;;5059454;28;20525;-74
2022/05/20 13:16:58;;;;;;;21.05;12.65;;;;;;;;;;5062891;28;20088;-75
2022/05/20 13:19:30;;;;;;;24.02;12.25;;;;;;;;;;5060483;28;20053;-74
2022/05/20 13:21:58;;;;;;;21.52;11.68;;;;;;;;;;5064757;28;20139;-75
2022/05/20 13:24:27;;;;;;;19.95;11.60;;;;;;;;;;5064608;28;20129;-74
2022/05/20 13:27:13;;;;;;;17.63;10.65;;;;;;;;;;5056738;28;20063;-75
2022/05/20 13:29:40;;;;;;;18.02;10.57;;;;;;;;;;5064765;28;20128;-75
2022/05/20 13:32:14;;;;;;;18.85;10.27;;;;;;;;;;5064675;28;20564;-74
2022/05/20 13:34:44;;;;;;;21.52;11.35;;;;;;;;;;5063881;28;20061;-75
2022/05/20 13:37:12;;;;;;;17.55;11.52;;;;;;;;;;5050379;28;20535;-74
2022/05/20 13:39:38;;;;;;;18.83;11.32;;;;;;;;;;5063978;28;20063;-74
2022/05/20 13:42:12;;;;;;;22.33;12.32;;;;;;;;;;5064890;28;20049;-75
2022/05/20 13:44:39;;;;;;;20.80;12.65;;;;;;;;;;5064493;28;20072;-74
2022/05/20 13:49:51;;;;;;;18.52;11.27;;;;;;;;;;5066454;28;20208;-74
2022/05/20 13:52:18;;;;;;;19.33;11.68;;;;;;;;;;5058464;28;20063;-74
2022/05/20 13:54:56;;;;;;;22.38;13.38;;;;;;;;;;5044563;28;20063;-75
2022/05/20 13:57:33;;;;;;;21.33;12.90;;;;;;;;;;5062955;28;20063;-73
2022/05/20 14:00:20;;;;;;;23.20;14.30;;;;;;;;;;5064721;28;20056;-75
2022/05/20 14:02:54;;;;;;;20.67;12.68;;;;;;;;;;5060664;28;20060;-75
2022/05/20 14:05:28;;;;;;;20.85;12.93;;;;;;;;;;5064462;28;20061;-74
2022/05/20 14:07:58;;;;;;;20.35;13.15;;;;;;;;;;5063297;28;20191;-74
2022/05/20 14:10:25;;;;;;;21.45;12.60;;;;;;;;;;5054265;28;20945;-74
2022/05/20 14:12:55;;;;;;;28.88;15.07;;;;;;;;;;5061969;28;20558;-74
2022/05/20 14:15:35;;;;;;;30.92;14.15;;;;;;;;;;5058728;28;20056;-73
2022/05/20 14:18:03;;;;;;;21.98;11.95;;;;;;;;;;5073259;28;20705;-74
2022/05/20 14:20:31;;;;;;;22.00;12.60;;;;;;;;;;5066704;28;20147;-73
2022/05/20 14:22:58;;;;;;;18.90;12.75;;;;;;;;;;5068478;28;20045;-73
2022/05/20 14:25:29;;;;;;;20.45;12.68;;;;;;;;;;5061681;28;20132;-74
2022/05/20 14:28:10;;;;;;;18.63;11.95;;;;;;;;;;5062758;28;20056;-75
2022/05/20 14:30:46;;;;;;;16.33;11.40;;;;;;;;;;5051273;28;20580;-74
2022/05/20 14:33:28;;;;;;;19.88;12.90;;;;;;;;;;5061466;28;20059;-74
2022/05/20 14:35:55;;;;;;;24.20;14.02;;;;;;;;;;5063817;28;20140;-75
2022/05/20 14:38:30;;;;;;;18.83;12.68;;;;;;;;;;5062237;28;20532;-74
2022/05/20 14:41:01;;;;;;;16.45;11.75;;;;;;;;;;5060423;28;20055;-73
2022/05/20 14:43:35;;;;;;;18.85;11.95;;;;;;;;;;5059601;28;20145;-74
2022/05/20 14:46:03;;;;;;;21.33;13.25;;;;;;;;;;5060876;28;20080;-74
2022/05/20 14:48:36;;;;;;;20.60;13.48;;;;;;;;;;5063054;28;20551;-75
2022/05/20 14:51:27;;;;;;;21.95;14.32;;;;;;;;;;5060685;28;20053;-75
2022/05/20 14:53:57;;;;;;;23.42;13.82;;;;;;;;;;5060144;28;20195;-75
2022/05/20 14:56:29;;;;;;;23.20;13.93;;;;;;;;;;5061568;28;20130;-75
2022/05/20 14:58:58;;;;;;;20.35;12.80;;;;;;;;;;5059747;28;20049;-73
2022/05/20 15:01:27;;;;;;;23.88;13.63;;;;;;;;;;5044691;28;20132;-74
2022/05/20 15:03:53;;;;;;;22.35;13.73;;;;;;;;;;5054926;28;20068;-74
2022/05/20 15:06:20;;;;;;;18.52;12.85;;;;;;;;;;5059601;28;20056;-73
2022/05/20 15:08:47;;;;;;;19.58;12.40;;;;;;;;;;5059491;28;20063;-73
2022/05/20 15:11:19;;;;;;;18.98;12.00;;;;;;;;;;5056458;28;20577;-75
2022/05/20 15:13:45;;;;;;;21.33;12.77;;;;;;;;;;5054792;28;20053;-74
2022/05/20 15:16:12;;;;;;;20.83;12.90;;;;;;;;;;5058058;28;20063;-75
2022/05/20 15:18:38;;;;;;;26.00;14.32;;;;;;;;;;5051831;28;20049;-74
2022/05/20 15:21:07;;;;;;;22.60;13.05;;;;;;;;;;5059433;28;20044;-73